Time;durP1;ratioP1;P1;durP2;ratioP2;P2;SDS_P1;SDS_P2;PMS_P1;PMS_P2;Temp;Humidity;BMP_temperature;BMP_pressure;BME280_temperature;BME280_humidity;BME280_pressure;Samples;Min_cycle;Max_cycle;Signal;HPM_P1;HPM_P2
2023/01/12 00:01:52;;;;;;;;;;;3.90;99.90;;;;;;5108056;28;20241;-76
2023/01/12 00:04:18;;;;;;;;;;;3.90;99.90;;;;;;5091758;28;20238;-76
2023/01/12 00:06:44;;;;;;;;;;;3.90;99.90;;;;;;5093075;28;19920;-76
2023/01/12 00:09:10;;;;;;;;;;;3.80;99.90;;;;;;5109828;28;19947;-78
2023/01/12 00:11:36;;;;;;;;;;;3.80;99.90;;;;;;5110387;28;19934;-76
2023/01/12 00:14:02;;;;;;;;;;;3.90;99.90;;;;;;5110753;28;20410;-77
2023/01/12 00:16:34;;;;;;;;;;;3.80;99.90;;;;;;5110141;28;20136;-77
2023/01/12 00:19:11;;;;;;;;;;;3.80;99.90;;;;;;5110508;28;19952;-77
2023/01/12 00:22:10;;;;;;;;;;;3.90;99.90;;;;;;5110965;28;20597;-78
2023/01/12 00:24:34;;;;;;;;;;;3.80;99.90;;;;;;5109376;28;19912;-76
2023/01/12 00:27:01;;;;;;;;;;;3.80;99.90;;;;;;5109019;28;19916;-78
2023/01/12 00:29:27;;;;;;;;;;;3.80;99.90;;;;;;5108441;28;19916;-77
2023/01/12 00:31:53;;;;;;;;;;;3.80;99.90;;;;;;5110373;28;19908;-77
2023/01/12 00:34:19;;;;;;;;;;;3.70;99.90;;;;;;5112528;28;19916;-78
2023/01/12 00:36:45;;;;;;;;;;;3.70;99.90;;;;;;5112956;28;19916;-78
2023/01/12 00:39:11;;;;;;;;;;;3.70;99.90;;;;;;5112448;28;20394;-77
2023/01/12 00:47:07;;;;;;;;;;;3.80;99.90;;;;;;5108554;28;19915;-79
2023/01/12 00:49:33;;;;;;;;;;;3.70;99.90;;;;;;5107552;28;19920;-76
2023/01/12 00:51:59;;;;;;;;;;;3.70;99.90;;;;;;5107978;28;20010;-76
2023/01/12 00:54:24;;;;;;;;;;;3.80;99.90;;;;;;5108213;28;19977;-77
2023/01/12 00:56:50;;;;;;;;;;;4.30;99.90;;;;;;5108807;28;19954;-78
2023/01/12 00:59:15;;;;;;;;;;;3.70;99.90;;;;;;5107820;28;19908;-76
2023/01/12 01:01:41;;;;;;;;;;;3.70;99.90;;;;;;5089347;28;20185;-76
2023/01/12 01:04:07;;;;;;;;;;;3.70;99.90;;;;;;5109096;28;19912;-77
2023/01/12 01:06:32;;;;;;;;;;;3.80;99.90;;;;;;5107820;28;20008;-76
2023/01/12 01:08:58;;;;;;;;;;;3.80;99.90;;;;;;5107574;28;20011;-76
2023/01/12 01:11:23;;;;;;;;;;;3.90;99.90;;;;;;5091203;28;19986;-75
2023/01/12 01:13:49;;;;;;;;;;;3.90;99.90;;;;;;5108936;28;20557;-76
2023/01/12 01:16:16;;;;;;;;;;;3.90;99.90;;;;;;5108387;28;19908;-77
2023/01/12 01:18:42;;;;;;;;;;;3.90;99.90;;;;;;5107674;28;19943;-77
2023/01/12 01:21:08;;;;;;;;;;;3.80;99.90;;;;;;5107172;28;19915;-77
2023/01/12 01:23:35;;;;;;;;;;;3.90;99.90;;;;;;5108481;28;19911;-76
2023/01/12 01:26:01;;;;;;;;;;;3.70;99.90;;;;;;5109055;28;19908;-76
2023/01/12 01:28:27;;;;;;;;;;;3.80;99.90;;;;;;5092971;28;20468;-77
2023/01/12 01:31:00;;;;;;;;;;;3.70;99.90;;;;;;5089358;28;19908;-76
2023/01/12 01:33:26;;;;;;;;;;;3.70;99.90;;;;;;5094329;28;19920;-78
2023/01/12 01:35:52;;;;;;;;;;;3.70;99.90;;;;;;5095936;28;19912;-79
2023/01/12 01:38:17;;;;;;;;;;;3.70;99.90;;;;;;5096569;28;19908;-77
2023/01/12 01:40:43;;;;;;;;;;;3.60;99.90;;;;;;5095853;28;19934;-76
2023/01/12 01:43:12;;;;;;;;;;;3.40;99.90;;;;;;5073822;28;19920;-76
2023/01/12 01:45:38;;;;;;;;;;;3.50;99.90;;;;;;5092047;28;19962;-76
2023/01/12 01:48:04;;;;;;;;;;;1.70;99.90;;;;;;5087305;28;19980;-77
2023/01/12 01:50:37;;;;;;;;;;;3.40;99.90;;;;;;5087716;28;19916;-77
2023/01/12 01:53:05;;;;;;;;;;;3.50;99.90;;;;;;5087092;28;19909;-80
2023/01/12 01:55:36;;;;;;;;;;;3.30;99.90;;;;;;5068814;28;19908;-77
2023/01/12 01:58:03;;;;;;;;;;;3.30;99.90;;;;;;5086344;28;20093;-77
2023/01/12 02:00:29;;;;;;;;;;;0.50;99.90;;;;;;5086773;28;19954;-77
2023/01/12 02:02:55;;;;;;;;;;;3.20;99.90;;;;;;5086709;28;19912;-77
2023/01/12 02:05:23;;;;;;;;;;;3.30;99.90;;;;;;5086250;28;19966;-77
2023/01/12 02:07:49;;;;;;;;;;;3.10;99.90;;;;;;5083912;28;19912;-76
2023/01/12 02:10:15;;;;;;;;;;;3.10;99.90;;;;;;5083092;28;20015;-77
2023/01/12 02:18:22;;;;;;;;;;;2.90;99.90;;;;;;5084228;28;19970;-77
2023/01/12 02:20:48;;;;;;;;;;;2.90;99.90;;;;;;5084322;28;19923;-78
2023/01/12 02:23:23;;;;;;;;;;;3.00;99.90;;;;;;5085393;28;19908;-76
2023/01/12 02:25:57;;;;;;;;;;;3.00;99.90;;;;;;5085001;28;19912;-77
2023/01/12 02:28:43;;;;;;;;;;;3.00;99.90;;;;;;5101580;28;19922;-77
2023/01/12 02:31:11;;;;;;;;;;;2.80;99.90;;;;;;5106600;28;19968;-76
2023/01/12 02:33:40;;;;;;;;;;;2.70;99.90;;;;;;5105771;28;20219;-77
2023/01/12 02:36:23;;;;;;;;;;;2.70;99.90;;;;;;5104645;28;19920;-76
2023/01/12 02:39:12;;;;;;;;;;;2.70;99.90;;;;;;5105030;28;20006;-81
2023/01/12 02:44:34;;;;;;;;;;;2.70;99.90;;;;;;5003269;28;19916;-76
2023/01/12 02:47:02;;;;;;;;;;;2.60;99.90;;;;;;5002638;28;19909;-76
2023/01/12 02:49:30;;;;;;;;;;;2.60;99.90;;;;;;5002820;28;19918;-77
2023/01/12 02:51:59;;;;;;;;;;;2.50;99.90;;;;;;5003294;28;19909;-77
2023/01/12 02:54:25;;;;;;;;;;;2.40;99.90;;;;;;5003623;28;20187;-77
2023/01/12 02:56:53;;;;;;;;;;;2.40;99.90;;;;;;5003298;28;19963;-76
2023/01/12 02:59:18;;;;;;;;;;;2.30;99.90;;;;;;4988258;28;19914;-76
2023/01/12 03:01:47;;;;;;;;;;;2.30;99.90;;;;;;5006629;28;20237;-76
2023/01/12 03:04:14;;;;;;;;;;;2.30;99.90;;;;;;5006781;28;20063;-77
2023/01/12 03:06:55;;;;;;;;;;;2.20;99.90;;;;;;5006351;28;20410;-78
2023/01/12 03:09:21;;;;;;;;;;;2.20;99.90;;;;;;5005612;28;20391;-77
2023/01/12 03:11:47;;;;;;;;;;;2.20;99.90;;;;;;5005344;28;19917;-76
2023/01/12 03:14:13;;;;;;;;;;;2.10;99.90;;;;;;5006745;28;20056;-76
2023/01/12 03:16:40;;;;;;;;;;;2.10;99.90;;;;;;4989524;28;20260;-76
2023/01/12 03:19:08;;;;;;;;;;;2.20;99.90;;;;;;5055195;28;20006;-76
2023/01/12 03:21:39;;;;;;;;;;;2.10;99.90;;;;;;5109879;28;19911;-78
2023/01/12 03:24:09;;;;;;;;;;;2.00;99.90;;;;;;5109894;28;20312;-76
2023/01/12 03:26:36;;;;;;;;;;;2.10;99.90;;;;;;5109004;28;19912;-76
2023/01/12 03:29:14;;;;;;;;;;;2.10;99.90;;;;;;5090773;28;20022;-79
2023/01/12 03:31:42;;;;;;;;;;;2.00;99.90;;;;;;5090947;28;19967;-76
2023/01/12 03:34:08;;;;;;;;;;;4.50;99.90;;;;;;5108619;28;19919;-77
2023/01/12 03:36:53;;;;;;;;;;;2.10;99.90;;;;;;5108093;28;19912;-78
2023/01/12 03:39:35;;;;;;;;;;;2.10;99.90;;;;;;5110222;28;19919;-76
2023/01/12 03:42:24;;;;;;;;;;;2.20;99.90;;;;;;5107897;28;20372;-76
2023/01/12 03:44:50;;;;;;;;;;;2.20;99.90;;;;;;4987925;28;20193;-76
2023/01/12 03:47:19;;;;;;;;;;;2.50;99.90;;;;;;5003997;28;19997;-76
2023/01/12 03:49:49;;;;;;;;;;;2.20;99.90;;;;;;5003366;28;19917;-78
2023/01/12 03:52:16;;;;;;;;;;;2.20;99.90;;;;;;4987278;28;20525;-77
2023/01/12 03:54:42;;;;;;;;;;;2.20;99.90;;;;;;5008691;28;19913;-76
2023/01/12 03:57:08;;;;;;;;;;;2.20;99.90;;;;;;4993131;28;19914;-78
2023/01/12 03:59:34;;;;;;;;;;;2.20;99.90;;;;;;5009747;28;19910;-76
2023/01/12 04:01:59;;;;;;;;;;;2.30;99.90;;;;;;4991281;28;19916;-77
2023/01/12 04:04:25;;;;;;;;;;;2.20;99.90;;;;;;5005414;28;20247;-77
2023/01/12 04:06:51;;;;;;;;;;;2.30;99.90;;;;;;4989263;28;20215;-78
2023/01/12 04:09:16;;;;;;;;;;;2.20;99.90;;;;;;4989672;28;20204;-77
2023/01/12 04:14:26;;;;;;;;;;;2.30;99.90;;;;;;5004383;28;19917;-76
2023/01/12 04:16:51;;;;;;;;;;;1.80;99.90;;;;;;5004418;28;19949;-77
2023/01/12 04:19:17;;;;;;;;;;;2.30;99.90;;;;;;5006361;28;19960;-76
2023/01/12 04:24:27;;;;;;;;;;;2.30;99.90;;;;;;5109357;28;19980;-76
2023/01/12 04:26:53;;;;;;;;;;;2.30;99.90;;;;;;5109171;28;19920;-77
2023/01/12 04:29:18;;;;;;;;;;;2.30;99.90;;;;;;5090867;28;19924;-76
2023/01/12 04:31:44;;;;;;;;;;;2.40;99.90;;;;;;5109668;28;19934;-76
2023/01/12 04:34:09;;;;;;;;;;;2.40;99.90;;;;;;5090456;28;20293;-77
2023/01/12 04:36:35;;;;;;;;;;;2.50;99.90;;;;;;5109577;28;20006;-77
2023/01/12 04:39:01;;;;;;;;;;;3.70;99.90;;;;;;5089155;28;19908;-77
2023/01/12 04:41:29;;;;;;;;;;;2.50;99.90;;;;;;5106304;28;20101;-77
2023/01/12 04:43:55;;;;;;;;;;;2.10;99.90;;;;;;5105432;28;19979;-78
2023/01/12 04:46:20;;;;;;;;;;;2.50;99.90;;;;;;5107463;28;20070;-78
2023/01/12 04:48:47;;;;;;;;;;;2.60;99.90;;;;;;5107761;28;19939;-77
2023/01/12 04:51:12;;;;;;;;;;;2.50;99.90;;;;;;5108340;28;19919;-79
2023/01/12 04:53:39;;;;;;;;;;;2.60;99.90;;;;;;5090276;28;20421;-77
2023/01/12 04:56:05;;;;;;;;;;;2.60;99.90;;;;;;5107712;28;19991;-77
2023/01/12 04:58:31;;;;;;;;;;;2.60;99.90;;;;;;5107206;28;20277;-77
2023/01/12 05:00:57;;;;;;;;;;;2.60;99.90;;;;;;5088602;28;20064;-78
2023/01/12 05:03:22;;;;;;;;;;;2.60;99.90;;;;;;5088994;28;19922;-79
2023/01/12 05:05:48;;;;;;;;;;;2.60;99.90;;;;;;5107143;28;19987;-77
2023/01/12 05:10:58;;;;;;;;;;;2.50;99.90;;;;;;5106425;28;20048;-76
2023/01/12 05:13:25;;;;;;;;;;;2.50;99.90;;;;;;5088007;28;20458;-77
2023/01/12 05:15:51;;;;;;;;;;;2.50;99.90;;;;;;5107520;28;19915;-77
2023/01/12 05:18:17;;;;;;;;;;;2.60;99.90;;;;;;5107416;28;19940;-76
2023/01/12 05:20:43;;;;;;;;;;;2.60;99.90;;;;;;5107642;28;20033;-77
2023/01/12 05:23:08;;;;;;;;;;;2.50;99.90;;;;;;5108457;28;19912;-76
2023/01/12 05:25:34;;;;;;;;;;;2.00;99.90;;;;;;5110329;28;20347;-76
2023/01/12 05:27:59;;;;;;;;;;;2.70;99.90;;;;;;5092024;28;19919;-77
2023/01/12 05:30:25;;;;;;;;;;;2.70;99.90;;;;;;5110798;28;20618;-77
2023/01/12 05:32:52;;;;;;;;;;;2.70;99.90;;;;;;5094217;28;19933;-76
2023/01/12 05:35:18;;;;;;;;;;;2.70;99.90;;;;;;5116413;28;19916;-77
2023/01/12 05:37:44;;;;;;;;;;;2.80;99.90;;;;;;5115569;28;19919;-77
2023/01/12 05:40:10;;;;;;;;;;;2.80;99.90;;;;;;5116705;28;19953;-76
2023/01/12 05:45:19;;;;;;;;;;;2.80;99.90;;;;;;5110158;28;20122;-77
2023/01/12 05:47:45;;;;;;;;;;;2.70;99.90;;;;;;5108542;28;19994;-78
2023/01/12 05:50:11;;;;;;;;;;;2.70;99.90;;;;;;5107795;28;20377;-76
2023/01/12 05:52:37;;;;;;;;;;;2.60;99.90;;;;;;5108702;28;19908;-77
2023/01/12 05:55:03;;;;;;;;;;;2.60;99.90;;;;;;5109198;28;19915;-78
2023/01/12 05:57:29;;;;;;;;;;;2.50;99.90;;;;;;5109582;28;20224;-79
2023/01/12 05:59:55;;;;;;;;;;;2.50;99.90;;;;;;5106628;28;19943;-76
2023/01/12 06:02:20;;;;;;;;;;;2.50;99.90;;;;;;5105601;28;19908;-79
2023/01/12 06:04:46;;;;;;;;;;;0.00;99.90;;;;;;5105031;28;19912;-76
2023/01/12 06:07:12;;;;;;;;;;;2.50;99.90;;;;;;5104687;28;19944;-77
2023/01/12 06:09:38;;;;;;;;;;;2.60;99.90;;;;;;5105152;28;20002;-76
2023/01/12 06:14:49;;;;;;;;;;;2.60;99.90;;;;;;5104917;28;20103;-77
2023/01/12 06:17:14;;;;;;;;;;;2.70;99.90;;;;;;5105144;28;20374;-77
2023/01/12 06:19:40;;;;;;;;;;;2.80;99.90;;;;;;5086996;28;20027;-77
2023/01/12 06:22:06;;;;;;;;;;;2.80;99.90;;;;;;5104767;28;19907;-77
2023/01/12 06:24:32;;;;;;;;;;;2.90;99.90;;;;;;5086601;28;19912;-77
2023/01/12 06:26:57;;;;;;;;;;;2.90;99.90;;;;;;5106458;28;19919;-77
2023/01/12 06:29:23;;;;;;;;;;;3.00;99.90;;;;;;5105897;28;19954;-76
2023/01/12 06:31:49;;;;;;;;;;;3.00;99.90;;;;;;5106653;28;19912;-76
2023/01/12 06:34:14;;;;;;;;;;;3.10;99.90;;;;;;5108640;28;19922;-76
2023/01/12 06:36:40;;;;;;;;;;;3.10;99.90;;;;;;5111222;28;19911;-76
2023/01/12 06:39:05;;;;;;;;;;;3.00;99.90;;;;;;5110116;28;19912;-77
2023/01/12 06:44:16;;;;;;;;;;;3.10;99.90;;;;;;5111494;28;20199;-76
2023/01/12 06:46:42;;;;;;;;;;;3.20;99.90;;;;;;5110798;28;20562;-77
2023/01/12 06:49:07;;;;;;;;;;;1.30;99.90;;;;;;5111693;28;19915;-77
2023/01/12 06:51:33;;;;;;;;;;;3.20;99.90;;;;;;5111768;28;19911;-77
2023/01/12 06:54:00;;;;;;;;;;;3.20;99.90;;;;;;5095064;28;19919;-76
2023/01/12 06:56:25;;;;;;;;;;;3.20;99.90;;;;;;5112832;28;20392;-77
2023/01/12 06:58:51;;;;;;;;;;;3.20;99.90;;;;;;5110543;28;20619;-76
2023/01/12 07:01:17;;;;;;;;;;;2.90;99.90;;;;;;5111099;28;19978;-78
2023/01/12 07:03:43;;;;;;;;;;;3.30;99.90;;;;;;5109351;28;19919;-76
2023/01/12 07:06:08;;;;;;;;;;;3.30;99.90;;;;;;5108515;28;19916;-76
2023/01/12 07:08:34;;;;;;;;;;;3.30;99.90;;;;;;5116341;28;19908;-78
2023/01/12 07:11:02;;;;;;;;;;;3.30;99.90;;;;;;5115516;28;20435;-77
2023/01/12 07:13:28;;;;;;;;;;;3.40;99.90;;;;;;5114661;28;19956;-77
2023/01/12 07:15:54;;;;;;;;;;;4.20;99.90;;;;;;5110888;28;20015;-77
2023/01/12 07:18:19;;;;;;;;;;;3.40;99.90;;;;;;5111086;28;20547;-77
2023/01/12 07:20:47;;;;;;;;;;;3.40;99.90;;;;;;5110541;28;19908;-77
2023/01/12 07:23:13;;;;;;;;;;;3.40;99.90;;;;;;5092282;28;20204;-78
2023/01/12 07:25:38;;;;;;;;;;;3.40;99.90;;;;;;5111676;28;19912;-77
2023/01/12 07:28:04;;;;;;;;;;;3.40;99.90;;;;;;5110976;28;19927;-76
2023/01/12 07:30:30;;;;;;;;;;;3.40;99.90;;;;;;5109427;28;19916;-79
2023/01/12 07:33:04;;;;;;;;;;;3.30;99.90;;;;;;5110083;28;20427;-77
2023/01/12 07:35:29;;;;;;;;;;;3.40;99.90;;;;;;5110359;28;19915;-77
2023/01/12 07:37:55;;;;;;;;;;;3.90;99.90;;;;;;5091939;28;20513;-78
2023/01/12 07:40:21;;;;;;;;;;;3.50;99.90;;;;;;5110141;28;19973;-77
2023/01/12 07:42:46;;;;;;;;;;;3.50;99.90;;;;;;5111367;28;19950;-76
2023/01/12 07:45:12;;;;;;;;;;;3.50;99.90;;;;;;5108977;28;19915;-76
2023/01/12 07:47:38;;;;;;;;;;;3.50;99.90;;;;;;5110343;28;19951;-76
2023/01/12 07:50:03;;;;;;;;;;;3.50;99.90;;;;;;5109569;28;19998;-76
2023/01/12 07:52:29;;;;;;;;;;;3.50;99.90;;;;;;5110566;28;20228;-78
2023/01/12 07:54:55;;;;;;;;;;;3.50;99.90;;;;;;5108098;28;20179;-76
2023/01/12 07:57:22;;;;;;;;;;;3.40;99.90;;;;;;5084008;28;19919;-76
2023/01/12 07:59:47;;;;;;;;;;;5.10;99.90;;;;;;5084848;28;19912;-76
2023/01/12 08:02:15;;;;;;;;;;;3.30;99.90;;;;;;5083976;28;19914;-76
2023/01/12 08:04:44;;;;;;;;;;;5.10;99.90;;;;;;5103379;28;19912;-76
2023/01/12 08:07:09;;;;;;;;;;;3.30;99.90;;;;;;5104328;28;19943;-76
2023/01/12 08:09:35;;;;;;;;;;;3.30;99.90;;;;;;5105405;28;20008;-75
2023/01/12 08:12:01;;;;;;;;;;;3.40;99.90;;;;;;5102074;28;19919;-76
2023/01/12 08:14:29;;;;;;;;;;;3.40;99.90;;;;;;5102437;28;20334;-76
2023/01/12 08:16:55;;;;;;;;;;;3.50;99.90;;;;;;5101900;28;20081;-76
2023/01/12 08:19:23;;;;;;;;;;;3.50;99.90;;;;;;5102003;28;19907;-76
2023/01/12 08:21:55;;;;;;;;;;;3.60;99.90;;;;;;5103044;28;19922;-77
2023/01/12 08:24:24;;;;;;;;;;;3.50;99.90;;;;;;5103017;28;19919;-77
2023/01/12 08:26:50;;;;;;;;;;;3.60;99.90;;;;;;5083689;28;19915;-75
2023/01/12 08:29:28;;;;;;;;;;;3.60;99.90;;;;;;5104157;28;20010;-76
2023/01/12 08:31:55;;;;;;;;;;;3.70;99.90;;;;;;5102902;28;19908;-76
2023/01/12 08:34:21;;;;;;;;;;;3.70;99.90;;;;;;5103406;28;19908;-76
2023/01/12 08:36:47;;;;;;;;;;;3.60;99.90;;;;;;5103534;28;20196;-76
2023/01/12 08:39:13;;;;;;;;;;;3.80;99.90;;;;;;5105552;28;20221;-76
2023/01/12 08:41:41;;;;;;;;;;;3.80;99.90;;;;;;5086507;28;19918;-77
2023/01/12 08:44:09;;;;;;;;;;;3.90;99.90;;;;;;5104289;28;19907;-76
2023/01/12 08:46:45;;;;;;;;;;;4.00;99.90;;;;;;5104068;28;19914;-76
2023/01/12 08:49:13;;;;;;;;;;;4.00;99.90;;;;;;5085727;28;20023;-76
2023/01/12 08:51:39;;;;;;;;;;;4.10;99.90;;;;;;5104635;28;19916;-76
2023/01/12 08:54:05;;;;;;;;;;;4.10;99.90;;;;;;5086356;28;20208;-75
2023/01/12 08:56:32;;;;;;;;;;;4.20;99.90;;;;;;5105914;28;19935;-76
2023/01/12 08:58:57;;;;;;;;;;;4.20;99.90;;;;;;5105283;28;19930;-77
2023/01/12 09:01:23;;;;;;;;;;;4.30;99.90;;;;;;5085418;28;20434;-76
2023/01/12 09:03:49;;;;;;;;;;;4.30;99.90;;;;;;5102808;28;19922;-76
2023/01/12 09:06:19;;;;;;;;;;;4.10;99.90;;;;;;5102026;28;20018;-76
2023/01/12 09:08:45;;;;;;;;;;;6.00;99.90;;;;;;5102128;28;20282;-76
2023/01/12 09:11:11;;;;;;;;;;;4.30;99.90;;;;;;5101949;28;19955;-77
2023/01/12 09:13:37;;;;;;;;;;;4.40;99.90;;;;;;5102233;28;20033;-76
2023/01/12 09:16:10;;;;;;;;;;;4.50;99.90;;;;;;5101074;28;19931;-76
2023/01/12 09:18:36;;;;;;;;;;;4.50;99.90;;;;;;5085315;28;19908;-76
2023/01/12 09:21:21;;;;;;;;;;;2.90;99.90;;;;;;5102375;28;19907;-76
2023/01/12 09:23:48;;;;;;;;;;;4.80;99.90;;;;;;5103874;28;20008;-76
2023/01/12 09:26:18;;;;;;;;;;;4.80;99.90;;;;;;5107235;28;19908;-76
2023/01/12 09:28:45;;;;;;;;;;;4.80;99.90;;;;;;5109878;28;19920;-76
2023/01/12 09:31:12;;;;;;;;;;;6.00;99.90;;;;;;5095123;28;19912;-76
2023/01/12 09:33:38;;;;;;;;;;;5.00;99.90;;;;;;5102510;28;19912;-75
2023/01/12 09:36:08;;;;;;;;;;;4.80;99.90;;;;;;5101500;28;19911;-75
2023/01/12 09:38:35;;;;;;;;;;;4.80;99.90;;;;;;5101479;28;20436;-74
2023/01/12 09:41:02;;;;;;;;;;;5.00;99.90;;;;;;5102893;28;20417;-77
2023/01/12 09:49:10;;;;;;;;;;;;;;;;;;;;;
2023/01/12 09:51:42;;;;;;;;;;;5.40;99.90;;;;;;5100499;28;19914;-76
2023/01/12 09:54:08;;;;;;;;;;;5.40;99.90;;;;;;5100709;28;19912;-74
2023/01/12 09:56:37;;;;;;;;;;;5.50;99.90;;;;;;5099582;28;19961;-75
2023/01/12 09:59:09;;;;;;;;;;;5.10;99.90;;;;;;5082099;28;19908;-76
2023/01/12 10:01:35;;;;;;;;;;;5.60;99.90;;;;;;5101001;28;19916;-76
2023/01/12 10:04:02;;;;;;;;;;;5.80;99.90;;;;;;5082144;28;19977;-75
2023/01/12 10:06:28;;;;;;;;;;;5.80;99.90;;;;;;5100538;28;20002;-76
2023/01/12 10:09:20;;;;;;;;;;;5.80;99.90;;;;;;5083536;28;19907;-75
2023/01/12 10:12:04;;;;;;;;;;;5.80;99.90;;;;;;5100727;28;19911;-75
2023/01/12 10:14:33;;;;;;;;;;;5.80;99.90;;;;;;5087942;28;19950;-76
2023/01/12 10:17:17;;;;;;;;;;;5.80;99.90;;;;;;5088091;28;19987;-76
2023/01/12 10:19:50;;;;;;;;;;;5.80;99.90;;;;;;5106711;28;19908;-76
2023/01/12 10:22:38;;;;;;;;;;;5.70;99.90;;;;;;5105948;28;19910;-76
2023/01/12 10:25:03;;;;;;;;;;;5.60;99.90;;;;;;5105724;28;19915;-75
2023/01/12 10:27:31;;;;;;;;;;;5.50;99.90;;;;;;5110999;28;20080;-76
2023/01/12 10:29:57;;;;;;;;;;;5.40;99.90;;;;;;5093949;28;19919;-76
2023/01/12 10:32:26;;;;;;;;;;;5.20;99.90;;;;;;5110131;28;19954;-76
2023/01/12 10:34:51;;;;;;;;;;;5.20;99.90;;;;;;5110349;28;19999;-76
2023/01/12 10:37:17;;;;;;;;;;;5.10;99.90;;;;;;5090488;28;19943;-76
2023/01/12 10:39:43;;;;;;;;;;;5.00;99.90;;;;;;5108310;28;19914;-76
2023/01/12 10:45:12;;;;;;;;;;;5.00;99.90;;;;;;5111152;28;19993;-77
2023/01/12 10:47:37;;;;;;;;;;;5.00;99.90;;;;;;5101516;28;19904;-76
2023/01/12 10:50:21;;;;;;;;;;;5.10;99.90;;;;;;5105480;28;19977;-76
2023/01/12 10:52:49;;;;;;;;;;;5.40;99.90;;;;;;5104317;28;19904;-75
2023/01/12 10:55:24;;;;;;;;;;;5.30;99.90;;;;;;5085103;28;20099;-75
2023/01/12 10:57:50;;;;;;;;;;;5.30;99.90;;;;;;5104087;28;19912;-75
2023/01/12 11:00:23;;;;;;;;;;;5.30;99.90;;;;;;5104629;28;19910;-76
2023/01/12 11:02:49;;;;;;;;;;;5.20;99.90;;;;;;5103505;28;19998;-75
2023/01/12 11:05:37;;;;;;;;;;;5.20;99.90;;;;;;5084878;28;20007;-75
2023/01/12 11:08:18;;;;;;;;;;;5.10;99.90;;;;;;5102611;28;20029;-76
2023/01/12 11:10:43;;;;;;;;;;;5.20;99.90;;;;;;5106848;28;20408;-75
2023/01/12 11:13:21;;;;;;;;;;;4.90;99.90;;;;;;5105947;28;20219;-75
2023/01/12 11:15:55;;;;;;;;;;;4.90;99.90;;;;;;5092149;28;19915;-77
2023/01/12 11:18:24;;;;;;;;;;;4.80;99.90;;;;;;5105556;28;19915;-76
2023/01/12 11:20:53;;;;;;;;;;;4.80;99.90;;;;;;5103402;28;19934;-76
2023/01/12 11:23:22;;;;;;;;;;;4.80;99.90;;;;;;5103792;28;19904;-76
2023/01/12 11:25:49;;;;;;;;;;;4.80;99.90;;;;;;5085138;28;19915;-75
2023/01/12 11:28:18;;;;;;;;;;;4.80;99.90;;;;;;5102590;28;19941;-76
2023/01/12 11:30:54;;;;;;;;;;;4.90;99.90;;;;;;5104205;28;19981;-76
2023/01/12 11:33:23;;;;;;;;;;;4.90;99.90;;;;;;5104271;28;19943;-75
2023/01/12 11:35:49;;;;;;;;;;;4.90;99.90;;;;;;5103468;28;19912;-76
2023/01/12 11:38:15;;;;;;;;;;;4.90;99.90;;;;;;5086317;28;19908;-75
2023/01/12 11:40:41;;;;;;;;;;;4.90;99.90;;;;;;5105558;28;20118;-75
2023/01/12 11:46:18;;;;;;;;;;;4.90;99.90;;;;;;5103260;28;19915;-75
2023/01/12 11:49:04;;;;;;;;;;;4.90;99.90;;;;;;5103651;28;19919;-75
2023/01/12 11:51:30;;;;;;;;;;;5.00;99.90;;;;;;5000322;28;19916;-76
2023/01/12 11:53:56;;;;;;;;;;;4.90;99.90;;;;;;4999967;28;19909;-76
2023/01/12 11:56:27;;;;;;;;;;;5.00;99.90;;;;;;4986000;28;20165;-76
2023/01/12 11:58:58;;;;;;;;;;;5.00;99.90;;;;;;5004607;28;19938;-76
2023/01/12 12:01:42;;;;;;;;;;;5.10;99.90;;;;;;5003223;28;19916;-76
2023/01/12 12:04:10;;;;;;;;;;;5.10;99.90;;;;;;5002385;28;19917;-77
2023/01/12 12:06:36;;;;;;;;;;;5.30;99.90;;;;;;5006668;28;19917;-76
2023/01/12 12:09:02;;;;;;;;;;;5.20;99.90;;;;;;5007501;28;20580;-76
2023/01/12 12:11:33;;;;;;;;;;;5.20;99.90;;;;;;5006660;28;19917;-76
2023/01/12 12:14:07;;;;;;;;;;;5.20;99.90;;;;;;4990566;28;19909;-76
2023/01/12 12:16:51;;;;;;;;;;;5.20;99.90;;;;;;5005416;28;19913;-76
2023/01/12 12:19:16;;;;;;;;;;;5.30;99.90;;;;;;5006431;28;19910;-76
2023/01/12 12:21:49;;;;;;;;;;;5.30;99.90;;;;;;5005700;28;20065;-76
2023/01/12 12:24:33;;;;;;;;;;;5.30;99.90;;;;;;5003512;28;19914;-75
2023/01/12 12:27:23;;;;;;;;;;;5.40;99.90;;;;;;5004150;28;20000;-76
2023/01/12 12:29:48;;;;;;;;;;;5.40;99.90;;;;;;5004254;28;20208;-76
2023/01/12 12:32:20;;;;;;;;;;;5.40;99.90;;;;;;5006558;28;20657;-76
2023/01/12 12:35:06;;;;;;;;;;;5.30;99.90;;;;;;5003738;28;20506;-76
2023/01/12 12:37:51;;;;;;;;;;;5.30;99.90;;;;;;5014165;28;19913;-75
2023/01/12 12:40:17;;;;;;;;;;;5.20;99.90;;;;;;5020220;28;20025;-76
2023/01/12 12:45:40;;;;;;;;;;;5.10;99.90;;;;;;5002226;28;19906;-75
2023/01/12 12:48:11;;;;;;;;;;;5.00;99.90;;;;;;5002011;28;19910;-76
2023/01/12 12:50:39;;;;;;;;;;;4.90;99.90;;;;;;5002037;28;20077;-75
2023/01/12 12:53:13;;;;;;;;;;;4.90;99.90;;;;;;5000852;28;19950;-76
2023/01/12 12:55:39;;;;;;;;;;;4.80;99.90;;;;;;5001345;28;19909;-76
2023/01/12 12:58:25;;;;;;;;;;;4.80;99.90;;;;;;4984658;28;19912;-75
2023/01/12 13:00:52;;;;;;;;;;;4.80;99.90;;;;;;4999898;28;19905;-75
2023/01/12 13:03:36;;;;;;;;;;;4.90;99.90;;;;;;5000636;28;19910;-75
2023/01/12 13:06:17;;;;;;;;;;;4.90;99.90;;;;;;5017103;28;19917;-76
2023/01/12 13:08:44;;;;;;;;;;;4.80;99.90;;;;;;5051348;28;19908;-76
2023/01/12 13:11:09;;;;;;;;;;;4.80;99.90;;;;;;5070679;28;19915;-76
2023/01/12 13:13:36;;;;;;;;;;;4.80;99.90;;;;;;5069600;28;19905;-76
2023/01/12 13:16:20;;;;;;;;;;;4.80;99.90;;;;;;5053536;28;20002;-76
2023/01/12 13:18:52;;;;;;;;;;;4.80;99.90;;;;;;5070927;28;19909;-76
2023/01/12 13:21:26;;;;;;;;;;;4.90;99.90;;;;;;5069528;28;19996;-76
2023/01/12 13:23:55;;;;;;;;;;;4.90;99.90;;;;;;5111928;28;20008;-76
2023/01/12 13:26:33;;;;;;;;;;;5.00;99.90;;;;;;5106131;28;19908;-75
2023/01/12 13:29:17;;;;;;;;;;;5.00;99.90;;;;;;5087395;28;19924;-77
2023/01/12 13:31:43;;;;;;;;;;;5.00;99.90;;;;;;5111292;28;19908;-76
2023/01/12 13:34:47;;;;;;;;;;;5.00;99.90;;;;;;5110757;28;20128;-76
2023/01/12 13:37:16;;;;;;;;;;;5.10;99.90;;;;;;5003195;28;19913;-76
2023/01/12 13:39:46;;;;;;;;;;;5.10;99.90;;;;;;5005640;28;19906;-76
2023/01/12 13:45:01;;;;;;;;;;;5.20;99.90;;;;;;5009266;28;19956;-76
2023/01/12 13:47:29;;;;;;;;;;;5.20;99.90;;;;;;4991142;28;19905;-76
2023/01/12 13:49:57;;;;;;;;;;;6.70;99.90;;;;;;5005685;28;19980;-76
2023/01/12 13:52:34;;;;;;;;;;;5.20;99.90;;;;;;5003372;28;19961;-76
2023/01/12 13:55:01;;;;;;;;;;;5.20;99.90;;;;;;5001160;28;19913;-76
2023/01/12 13:57:29;;;;;;;;;;;5.20;99.90;;;;;;5004480;28;19910;-76
2023/01/12 14:00:07;;;;;;;;;;;5.10;99.90;;;;;;5005817;28;20012;-76
2023/01/12 14:02:34;;;;;;;;;;;5.00;99.90;;;;;;4999357;28;19917;-76
2023/01/12 14:05:18;;;;;;;;;;;5.10;99.90;;;;;;4998715;28;19933;-77
2023/01/12 14:07:56;;;;;;;;;;;5.10;99.90;;;;;;5040870;28;19915;-77
2023/01/12 14:10:45;;;;;;;;;;;5.20;99.90;;;;;;5083355;28;19915;-76
2023/01/12 14:13:29;;;;;;;;;;;5.20;99.90;;;;;;4998598;28;19909;-76
2023/01/12 14:18:47;;;;;;;;;;;5.20;99.90;;;;;;4998048;28;19915;-77
2023/01/12 14:21:20;;;;;;;;;;;5.30;99.90;;;;;;4998304;28;20084;-76
2023/01/12 14:23:46;;;;;;;;;;;5.30;99.90;;;;;;4997363;28;19905;-75
2023/01/12 14:26:18;;;;;;;;;;;5.70;99.90;;;;;;4979948;28;20056;-76
2023/01/12 14:28:45;;;;;;;;;;;5.20;99.90;;;;;;4997113;28;19917;-76
2023/01/12 14:31:19;;;;;;;;;;;5.20;99.90;;;;;;4981018;28;20545;-76
2023/01/12 14:33:52;;;;;;;;;;;5.20;99.90;;;;;;4997545;28;20206;-76
2023/01/12 14:36:34;;;;;;;;;;;5.30;99.90;;;;;;4997303;28;19940;-76
2023/01/12 14:39:00;;;;;;;;;;;5.30;99.90;;;;;;4997103;28;19957;-76
2023/01/12 14:47:07;;;;;;;;;;;5.30;99.90;;;;;;4997801;28;19936;-76
2023/01/12 14:49:36;;;;;;;;;;;5.20;99.90;;;;;;5017517;28;19927;-76
2023/01/12 14:52:20;;;;;;;;;;;4.90;99.90;;;;;;5100824;28;19907;-76
2023/01/12 14:54:46;;;;;;;;;;;5.10;99.90;;;;;;5100128;28;20603;-76
2023/01/12 14:57:29;;;;;;;;;;;5.10;99.90;;;;;;5103647;28;19946;-76
2023/01/12 14:59:55;;;;;;;;;;;5.00;99.90;;;;;;5102817;28;20006;-78
2023/01/12 15:02:28;;;;;;;;;;;5.10;99.90;;;;;;5084896;28;19908;-75
2023/01/12 15:05:09;;;;;;;;;;;5.10;99.90;;;;;;5103503;28;19962;-76
2023/01/12 15:07:36;;;;;;;;;;;5.10;99.90;;;;;;5104196;28;19908;-75
2023/01/12 15:10:08;;;;;;;;;;;5.10;99.90;;;;;;5102672;28;19923;-76
2023/01/12 15:12:34;;;;;;;;;;;5.10;99.90;;;;;;5103190;28;19907;-76
2023/01/12 15:15:18;;;;;;;;;;;5.10;99.90;;;;;;5104814;28;19981;-76
2023/01/12 15:26:10;;;;;;;;;;;5.10;99.90;;;;;;5103826;28;19953;-75
2023/01/12 15:28:36;;;;;;;;;;;5.20;99.90;;;;;;5102770;28;19961;-75
2023/01/12 15:31:02;;;;;;;;;;;5.10;99.90;;;;;;5084543;28;19919;-75
2023/01/12 15:33:27;;;;;;;;;;;5.00;99.90;;;;;;5102456;28;19912;-75
2023/01/12 15:35:53;;;;;;;;;;;5.10;99.90;;;;;;5103724;28;20401;-75
2023/01/12 15:38:19;;;;;;;;;;;5.00;99.90;;;;;;5103655;28;19934;-75
2023/01/12 15:40:46;;;;;;;;;;;4.90;99.90;;;;;;5103259;28;20584;-75
2023/01/12 15:43:13;;;;;;;;;;;4.90;99.90;;;;;;5102771;28;19915;-75
2023/01/12 15:45:43;;;;;;;;;;;4.90;99.90;;;;;;5102005;28;19964;-75
2023/01/12 15:48:08;;;;;;;;;;;4.90;99.90;;;;;;5083923;28;19958;-75